createdAt,value
2023-02-22T00:00:59.989Z,95.60
2023-02-22T00:03:32.388Z,95.60
2023-02-22T00:06:05.241Z,95.80
2023-02-22T00:08:35.647Z,95.90
2023-02-22T00:11:10.882Z,95.90
2023-02-22T00:13:39.177Z,95.80
2023-02-22T00:16:07.119Z,95.90
2023-02-22T00:18:34.430Z,96.00
2023-02-22T00:21:02.154Z,96.20
2023-02-22T00:23:30.855Z,96.20
2023-02-22T00:26:00.264Z,96.40
2023-02-22T00:28:27.979Z,96.70
2023-02-22T00:30:55.802Z,96.80
2023-02-22T00:33:23.623Z,96.80
2023-02-22T00:35:50.982Z,97.00
2023-02-22T00:38:19.688Z,96.90
2023-02-22T00:40:47.101Z,97.10
2023-02-22T00:43:15.026Z,97.40
2023-02-22T00:45:42.810Z,97.60
2023-02-22T00:48:10.590Z,97.60
2023-02-22T00:50:38.063Z,97.60
2023-02-22T00:53:05.731Z,97.60
2023-02-22T00:55:35.997Z,97.70
2023-02-22T00:58:04.869Z,97.70
2023-02-22T01:00:40.512Z,97.70
2023-02-22T01:03:10.625Z,98.00
2023-02-22T01:05:38.380Z,98.20
2023-02-22T01:08:07.645Z,98.40
2023-02-22T01:10:35.644Z,98.60
2023-02-22T01:13:09.410Z,98.70
2023-02-22T01:15:39.809Z,98.70
2023-02-22T01:18:07.485Z,98.90
2023-02-22T01:20:35.129Z,99.00
2023-02-22T01:23:06.721Z,99.10
2023-02-22T01:25:35.284Z,99.30
2023-02-22T01:28:03.898Z,99.40
2023-02-22T01:30:33.646Z,99.30
2023-02-22T01:33:03.596Z,99.40
2023-02-22T01:35:33.292Z,99.20
2023-02-22T01:38:01.077Z,99.20
2023-02-22T01:40:39.103Z,99.30
2023-02-22T01:43:25.671Z,99.20
2023-02-22T01:46:03.723Z,99.40
2023-02-22T01:48:40.041Z,99.80
2023-02-22T01:51:20.878Z,99.90
2023-02-22T01:54:23.663Z,99.90
2023-02-22T01:57:23.272Z,99.90
2023-02-22T01:59:56.737Z,99.90
2023-02-22T02:02:25.338Z,99.90
2023-02-22T02:04:56.553Z,99.90
2023-02-22T02:07:24.783Z,99.90
2023-02-22T02:10:02.005Z,99.90
2023-02-22T02:12:38.612Z,99.90
2023-02-22T02:15:26.107Z,99.90
2023-02-22T02:18:02.495Z,99.90
2023-02-22T02:20:41.891Z,99.90
2023-02-22T02:23:20.572Z,99.90
2023-02-22T02:25:54.657Z,99.90
2023-02-22T02:28:43.283Z,99.90
2023-02-22T02:31:48.078Z,99.90
2023-02-22T02:34:27.265Z,99.90
2023-02-22T02:37:07.540Z,99.90
2023-02-22T02:39:59.277Z,99.90
2023-02-22T02:42:38.319Z,99.90
2023-02-22T02:45:11.136Z,99.90
2023-02-22T02:47:43.820Z,99.90
2023-02-22T02:50:34.009Z,99.90
2023-02-22T02:53:07.013Z,99.90
2023-02-22T02:55:36.922Z,99.90
2023-02-22T02:58:08.404Z,99.90
2023-02-22T03:00:42.147Z,99.90
2023-02-22T03:03:15.321Z,99.90
2023-02-22T03:06:22.670Z,99.90
2023-02-22T03:09:13.735Z,99.90
2023-02-22T03:12:18.659Z,99.90
2023-02-22T03:15:08.013Z,99.90
2023-02-22T03:17:45.415Z,99.90
2023-02-22T03:20:12.627Z,99.90
2023-02-22T03:23:06.546Z,99.90
2023-02-22T03:25:50.151Z,99.90
2023-02-22T03:28:21.540Z,99.90
2023-02-22T03:31:02.153Z,99.90
2023-02-22T03:33:34.019Z,99.90
2023-02-22T03:36:22.269Z,99.90
2023-02-22T03:38:51.424Z,99.90
2023-02-22T03:41:25.179Z,99.90
2023-02-22T03:44:08.664Z,99.90
2023-02-22T03:46:40.792Z,99.90
2023-02-22T03:49:20.332Z,99.90
2023-02-22T03:51:48.424Z,99.90
2023-02-22T03:54:16.690Z,99.90
2023-02-22T03:57:16.592Z,99.90
2023-02-22T03:59:45.969Z,99.90
2023-02-22T04:02:13.250Z,99.90
2023-02-22T04:04:40.720Z,99.90
2023-02-22T04:07:08.994Z,99.90
2023-02-22T04:09:37.238Z,99.90
2023-02-22T04:12:05.113Z,99.90
2023-02-22T04:14:42.450Z,99.90
2023-02-22T04:17:10.363Z,99.90
2023-02-22T04:19:37.644Z,99.90
2023-02-22T04:22:05.386Z,99.90
2023-02-22T04:24:34.764Z,99.90
2023-02-22T04:27:02.005Z,99.90
2023-02-22T04:29:30.113Z,99.90
2023-02-22T04:31:57.558Z,99.90
2023-02-22T04:34:24.854Z,99.90
2023-02-22T04:36:52.543Z,99.90
2023-02-22T04:39:20.573Z,99.90
2023-02-22T04:41:47.829Z,99.90
2023-02-22T04:44:15.473Z,99.90
2023-02-22T04:46:42.942Z,99.90
2023-02-22T04:49:13.469Z,99.90
2023-02-22T04:51:42.672Z,99.90
2023-02-22T04:54:13.779Z,99.90
2023-02-22T04:56:46.552Z,99.90
2023-02-22T04:59:13.884Z,99.90
2023-02-22T05:01:44.869Z,99.90
2023-02-22T05:04:12.260Z,99.90
2023-02-22T05:06:39.386Z,99.90
2023-02-22T05:09:06.737Z,99.90
2023-02-22T05:11:34.062Z,99.90
2023-02-22T05:14:01.403Z,99.90
2023-02-22T05:16:28.592Z,99.90
2023-02-22T05:18:55.858Z,99.90
2023-02-22T05:21:23.713Z,99.90
2023-02-22T05:23:50.902Z,99.90
2023-02-22T05:26:19.123Z,99.90
2023-02-22T05:28:46.465Z,99.90
2023-02-22T05:31:14.097Z,99.90
2023-02-22T05:33:41.604Z,99.90
2023-02-22T05:36:09.730Z,99.90
2023-02-22T05:38:43.386Z,99.90
2023-02-22T05:41:13.216Z,99.90
2023-02-22T05:43:41.398Z,99.90
2023-02-22T05:46:08.676Z,99.90
2023-02-22T05:48:36.666Z,99.90
2023-02-22T05:51:05.084Z,99.90
2023-02-22T05:53:38.201Z,99.90
2023-02-22T05:56:07.240Z,99.90
2023-02-22T05:58:34.475Z,99.90
2023-02-22T06:01:03.331Z,99.90
2023-02-22T06:03:30.736Z,99.90
2023-02-22T06:05:58.224Z,99.90
2023-02-22T06:08:25.385Z,99.90
2023-02-22T06:10:52.631Z,99.90
2023-02-22T06:13:19.872Z,99.90
2023-02-22T06:15:47.226Z,99.90
2023-02-22T06:18:14.389Z,99.90
2023-02-22T06:20:41.611Z,99.90
2023-02-22T06:23:09.065Z,99.90
2023-02-22T06:25:36.723Z,99.90
2023-02-22T06:28:04.361Z,99.90
2023-02-22T06:30:33.511Z,99.90
2023-02-22T06:33:02.686Z,99.90
2023-02-22T06:35:42.720Z,99.90
2023-02-22T06:38:12.812Z,99.90
2023-02-22T06:40:40.629Z,99.90
2023-02-22T06:43:11.144Z,99.90
2023-02-22T06:45:38.585Z,99.90
2023-02-22T06:48:05.921Z,99.90
2023-02-22T06:50:35.845Z,99.90
2023-02-22T06:53:03.801Z,99.90
2023-02-22T06:55:33.026Z,99.90
2023-02-22T06:58:01.743Z,99.90
2023-02-22T07:00:30.546Z,99.90
2023-02-22T07:02:58.368Z,99.90
2023-02-22T07:05:27.061Z,99.90
2023-02-22T07:08:01.231Z,99.90
2023-02-22T07:10:31.461Z,99.90
2023-02-22T07:12:58.704Z,99.90
2023-02-22T07:15:28.033Z,99.90
2023-02-22T07:17:55.966Z,99.90
2023-02-22T07:20:24.727Z,99.90
2023-02-22T07:22:52.709Z,99.90
2023-02-22T07:25:20.378Z,99.90
2023-02-22T07:27:48.109Z,99.90
2023-02-22T07:30:21.179Z,99.90
2023-02-22T07:33:01.313Z,99.90
2023-02-22T07:35:41.173Z,99.90
2023-02-22T07:38:10.522Z,99.90
2023-02-22T07:40:39.132Z,99.90
2023-02-22T07:43:15.085Z,99.90
2023-02-22T07:45:42.914Z,99.90
2023-02-22T07:48:17.755Z,99.90
2023-02-22T07:51:04.769Z,99.90
2023-02-22T07:53:33.701Z,99.90
2023-02-22T07:56:02.757Z,99.90
2023-02-22T07:58:31.263Z,99.90
2023-02-22T08:00:59.059Z,99.90
2023-02-22T08:03:27.238Z,99.90
2023-02-22T08:05:57.752Z,99.90
2023-02-22T08:08:25.062Z,99.90
2023-02-22T08:10:52.651Z,99.90
2023-02-22T08:13:22.331Z,99.90
2023-02-22T08:15:53.669Z,99.90
2023-02-22T08:18:21.974Z,99.90
2023-02-22T08:20:52.196Z,99.90
2023-02-22T08:23:22.625Z,99.90
2023-02-22T08:25:49.802Z,99.90
2023-02-22T08:28:20.409Z,99.90
2023-02-22T08:30:47.745Z,99.90
2023-02-22T08:33:19.562Z,99.90
2023-02-22T08:35:54.854Z,99.90
2023-02-22T08:38:27.098Z,99.90
2023-02-22T08:40:54.703Z,99.90
2023-02-22T08:43:22.977Z,99.90
2023-02-22T08:45:52.032Z,99.90
2023-02-22T08:48:20.503Z,99.90
2023-02-22T08:50:47.950Z,99.90
2023-02-22T08:53:16.388Z,99.90
2023-02-22T08:55:44.145Z,99.90
2023-02-22T08:58:12.199Z,99.90
2023-02-22T09:00:40.858Z,99.90
2023-02-22T09:03:13.267Z,99.90
2023-02-22T09:05:42.019Z,99.90
2023-02-22T09:08:09.602Z,99.90
2023-02-22T09:10:36.978Z,99.90
2023-02-22T09:13:04.643Z,99.90
2023-02-22T09:15:32.878Z,99.90
2023-02-22T09:18:00.619Z,99.90
2023-02-22T09:20:28.910Z,99.90
2023-02-22T09:22:56.919Z,99.90
2023-02-22T09:25:27.452Z,99.90
2023-02-22T09:27:55.788Z,99.90
2023-02-22T09:30:33.386Z,99.90
2023-02-22T09:33:13.013Z,99.90
2023-02-22T09:35:46.529Z,99.90
2023-02-22T09:38:26.190Z,99.90
2023-02-22T09:40:55.838Z,99.90
2023-02-22T09:43:45.301Z,99.90
2023-02-22T09:46:30.804Z,99.90
2023-02-22T09:49:15.558Z,99.90
2023-02-22T09:51:49.468Z,99.90
2023-02-22T09:54:46.383Z,99.90
2023-02-22T09:57:32.741Z,99.90
2023-02-22T10:00:14.925Z,99.90
2023-02-22T10:02:54.387Z,99.90
2023-02-22T10:05:28.090Z,99.90
2023-02-22T10:08:06.039Z,99.90
2023-02-22T10:10:36.890Z,99.90
2023-02-22T10:13:23.120Z,99.90
2023-02-22T10:16:00.830Z,99.90
2023-02-22T10:18:49.173Z,99.90
2023-02-22T10:21:39.734Z,99.90
2023-02-22T10:24:19.005Z,99.90
2023-02-22T10:26:47.275Z,99.90
2023-02-22T10:29:17.197Z,99.90
2023-02-22T10:31:52.457Z,99.90
2023-02-22T10:34:28.476Z,99.90
2023-02-22T10:37:41.944Z,99.90
2023-02-22T10:40:23.088Z,99.90
2023-02-22T10:42:50.621Z,99.90
2023-02-22T10:45:37.761Z,99.90
2023-02-22T10:48:13.843Z,99.90
2023-02-22T10:50:43.912Z,99.90
2023-02-22T10:53:11.918Z,99.90
2023-02-22T10:56:17.150Z,99.90
2023-02-22T10:58:49.219Z,99.90
2023-02-22T11:01:31.400Z,99.90
2023-02-22T11:04:16.460Z,99.90
2023-02-22T11:06:49.291Z,99.90
2023-02-22T11:09:18.916Z,99.90
2023-02-22T11:11:48.471Z,99.90
2023-02-22T11:14:35.909Z,99.90
2023-02-22T11:17:08.516Z,99.90
2023-02-22T11:19:38.429Z,99.90
2023-02-22T11:22:21.817Z,99.90
2023-02-22T11:24:59.314Z,99.90
2023-02-22T11:27:47.091Z,99.90
2023-02-22T11:30:22.112Z,99.90
2023-02-22T11:33:10.656Z,99.90
2023-02-22T11:35:55.339Z,99.90
2023-02-22T11:38:32.929Z,99.80
2023-02-22T11:41:26.146Z,99.80
2023-02-22T11:43:58.901Z,99.70
2023-02-22T11:46:45.542Z,99.20
2023-02-22T11:49:17.425Z,99.20
2023-02-22T11:52:08.662Z,99.10
2023-02-22T11:54:39.103Z,98.70
2023-02-22T11:57:25.699Z,98.50
2023-02-22T12:00:27.904Z,98.70
2023-02-22T12:03:39.295Z,98.30
2023-02-22T12:06:15.831Z,98.20
2023-02-22T12:08:57.937Z,98.30
2023-02-22T12:11:38.092Z,97.70
2023-02-22T12:14:34.280Z,97.80
2023-02-22T12:17:20.584Z,97.70
2023-02-22T12:19:52.321Z,97.70
2023-02-22T12:22:26.918Z,97.60
2023-02-22T12:25:15.896Z,97.30
2023-02-22T12:27:59.245Z,97.30
2023-02-22T12:30:40.498Z,97.70
2023-02-22T12:33:15.885Z,97.00
2023-02-22T12:35:51.370Z,96.60
2023-02-22T12:38:42.224Z,96.40
2023-02-22T12:41:19.279Z,96.10
2023-02-22T12:43:52.722Z,96.30
2023-02-22T12:46:43.720Z,96.20
2023-02-22T12:49:21.034Z,95.80
2023-02-22T12:52:20.593Z,95.70
2023-02-22T12:54:56.261Z,95.60
2023-02-22T12:57:49.052Z,95.30
2023-02-22T13:00:35.660Z,95.20
2023-02-22T13:03:15.497Z,94.80
2023-02-22T13:05:45.090Z,93.90
2023-02-22T13:08:13.503Z,93.40
2023-02-22T13:11:08.867Z,92.20
2023-02-22T13:13:45.173Z,90.80
2023-02-22T13:16:41.398Z,84.50
2023-02-22T13:19:34.914Z,74.90
2023-02-22T13:22:46.824Z,64.30
2023-02-22T13:25:24.241Z,55.60
2023-02-22T13:28:00.110Z,49.00
2023-02-22T13:30:42.197Z,44.00
2023-02-22T13:33:29.396Z,41.40
2023-02-22T13:36:27.041Z,37.80
2023-02-22T13:38:54.197Z,38.50
2023-02-22T13:41:38.754Z,38.00
2023-02-22T13:44:27.176Z,37.30
2023-02-22T13:47:29.789Z,36.60
2023-02-22T13:49:57.091Z,37.00
2023-02-22T13:52:28.933Z,36.90
2023-02-22T13:55:11.216Z,36.50
2023-02-22T13:57:41.765Z,36.50
2023-02-22T14:00:15.060Z,35.30
2023-02-22T14:03:13.248Z,35.30
2023-02-22T14:05:44.866Z,38.20
2023-02-22T14:08:17.787Z,41.90
2023-02-22T14:10:46.830Z,43.70
2023-02-22T14:13:16.193Z,42.80
2023-02-22T14:16:02.372Z,43.00
2023-02-22T14:18:31.345Z,41.90
2023-02-22T14:21:10.504Z,41.30
2023-02-22T14:23:46.374Z,42.00
2023-02-22T14:26:16.820Z,41.90
2023-02-22T14:29:00.812Z,42.80
2023-02-22T14:32:04.947Z,43.80
2023-02-22T14:34:49.652Z,43.20
2023-02-22T14:37:40.898Z,43.70
2023-02-22T14:40:18.534Z,43.00
2023-02-22T14:42:48.333Z,43.20
2023-02-22T14:45:30.055Z,43.50
2023-02-22T14:48:20.966Z,43.80
2023-02-22T14:50:53.503Z,45.60
2023-02-22T14:53:36.945Z,46.50
2023-02-22T14:56:30.314Z,47.00
2023-02-22T14:59:19.060Z,48.10
2023-02-22T15:02:01.611Z,50.00
2023-02-22T15:04:35.158Z,51.40
2023-02-22T15:07:29.085Z,52.50
2023-02-22T15:10:21.459Z,53.50
2023-02-22T15:13:10.806Z,54.70
2023-02-22T15:15:46.970Z,55.30
2023-02-22T15:18:39.914Z,56.10
2023-02-22T15:21:13.458Z,56.70
2023-02-22T15:23:57.073Z,57.50
2023-02-22T15:26:42.469Z,58.10
2023-02-22T15:29:23.143Z,58.70
2023-02-22T15:31:51.488Z,59.60
2023-02-22T15:34:29.172Z,60.20
2023-02-22T15:37:06.575Z,60.90
2023-02-22T15:39:43.761Z,61.70
2023-02-22T15:42:28.335Z,62.10
2023-02-22T15:45:03.497Z,62.70
2023-02-22T15:47:34.505Z,63.40
2023-02-22T15:50:21.334Z,63.80
2023-02-22T15:53:00.053Z,64.20
2023-02-22T15:55:33.723Z,64.60
2023-02-22T15:58:12.660Z,65.10
2023-02-22T16:00:43.257Z,65.80
2023-02-22T16:03:15.073Z,66.90
2023-02-22T16:05:49.944Z,67.90
2023-02-22T16:08:25.795Z,68.70
2023-02-22T16:11:32.833Z,69.20
2023-02-22T16:14:04.947Z,70.10
2023-02-22T16:16:36.515Z,71.10
2023-02-22T16:19:25.886Z,72.00
2023-02-22T16:21:56.317Z,72.90
2023-02-22T16:24:29.418Z,73.80
2023-02-22T16:27:16.943Z,74.80
2023-02-22T16:29:45.471Z,75.60
2023-02-22T16:32:13.994Z,76.30
2023-02-22T16:34:41.459Z,77.10
2023-02-22T16:37:22.222Z,77.80
2023-02-22T16:39:53.347Z,78.60
2023-02-22T16:42:24.213Z,79.40
2023-02-22T16:44:55.113Z,80.20
2023-02-22T16:47:22.378Z,80.90
2023-02-22T16:49:57.219Z,81.50
2023-02-22T16:52:24.621Z,82.30
2023-02-22T16:54:52.621Z,83.10
2023-02-22T16:57:22.620Z,83.80
2023-02-22T16:59:52.756Z,84.70
2023-02-22T17:02:22.037Z,85.40
2023-02-22T17:04:52.308Z,86.40
2023-02-22T17:07:29.934Z,87.30
2023-02-22T17:10:00.995Z,88.20
2023-02-22T17:12:30.445Z,89.30
2023-02-22T17:15:00.156Z,90.10
2023-02-22T17:17:27.494Z,90.60
2023-02-22T17:19:55.181Z,91.00
2023-02-22T17:22:36.435Z,91.40
2023-02-22T17:25:22.813Z,91.80
2023-02-22T17:27:50.604Z,92.20
2023-02-22T17:30:44.299Z,92.60
2023-02-22T17:36:17.367Z,93.30
2023-02-22T17:38:50.580Z,93.70
2023-02-22T17:41:31.079Z,93.90
2023-02-22T17:47:37.601Z,94.50
2023-02-22T17:50:13.259Z,94.70
2023-02-22T17:53:06.764Z,95.10
2023-02-22T17:55:42.835Z,95.30
2023-02-22T17:58:18.209Z,95.50
2023-02-22T18:00:54.245Z,95.60
2023-02-22T18:03:36.363Z,95.80
2023-02-22T18:06:19.867Z,95.90
2023-02-22T18:09:18.562Z,96.10
2023-02-22T18:12:05.826Z,96.30
2023-02-22T18:14:43.296Z,96.50
2023-02-22T18:17:13.371Z,96.60
2023-02-22T18:19:42.146Z,96.80
2023-02-22T18:22:09.326Z,96.90
2023-02-22T18:24:36.474Z,96.90
2023-02-22T18:27:06.067Z,97.10
2023-02-22T18:29:33.378Z,97.10
2023-02-22T18:32:00.611Z,97.10
2023-02-22T18:34:28.219Z,97.20
2023-02-22T18:36:55.996Z,97.30
2023-02-22T18:39:23.125Z,97.50
2023-02-22T18:41:50.551Z,97.50
2023-02-22T18:44:18.208Z,97.60
2023-02-22T18:46:45.503Z,97.70
2023-02-22T18:49:14.009Z,97.60
2023-02-22T18:51:43.609Z,97.80
2023-02-22T18:54:13.266Z,97.80
2023-02-22T18:56:40.685Z,97.80
2023-02-22T18:59:12.205Z,97.90
2023-02-22T19:01:41.135Z,97.90
2023-02-22T19:04:12.737Z,98.00
2023-02-22T19:06:41.509Z,97.90
2023-02-22T19:09:09.140Z,97.90
2023-02-22T19:11:37.191Z,97.90
2023-02-22T19:14:05.412Z,97.80
2023-02-22T19:16:33.360Z,97.80
2023-02-22T19:19:01.044Z,97.70
2023-02-22T19:21:30.079Z,97.80
2023-02-22T19:24:03.277Z,97.90
2023-02-22T19:26:30.895Z,97.70
2023-02-22T19:29:02.971Z,97.80
2023-02-22T19:31:33.763Z,97.80
2023-02-22T19:34:09.180Z,97.80
2023-02-22T19:36:40.735Z,97.80
2023-02-22T19:39:08.704Z,97.80
2023-02-22T19:41:37.291Z,97.80
2023-02-22T19:44:04.913Z,97.90
2023-02-22T19:46:32.193Z,98.10
2023-02-22T19:49:00.743Z,98.40
2023-02-22T19:51:29.706Z,98.50
2023-02-22T19:54:02.666Z,98.70
2023-02-22T19:56:31.029Z,98.80
2023-02-22T19:59:02.216Z,99.00
2023-02-22T20:01:33.269Z,99.00
2023-02-22T20:04:11.734Z,99.20
2023-02-22T20:06:41.763Z,99.30
2023-02-22T20:09:13.747Z,99.30
2023-02-22T20:11:40.984Z,99.40
2023-02-22T20:14:08.180Z,99.30
2023-02-22T20:16:35.745Z,99.20
2023-02-22T20:19:03.506Z,99.20
2023-02-22T20:21:33.557Z,99.10
2023-02-22T20:24:07.728Z,99.20
2023-02-22T20:26:36.246Z,99.10
2023-02-22T20:29:05.392Z,99.00
2023-02-22T20:31:32.966Z,99.00
2023-02-22T20:34:01.533Z,99.00
2023-02-22T20:36:30.394Z,98.80
2023-02-22T20:38:59.830Z,98.90
2023-02-22T20:41:35.720Z,98.80
2023-02-22T20:44:06.984Z,98.90
2023-02-22T20:46:37.730Z,98.90
2023-02-22T20:49:07.497Z,98.90
2023-02-22T20:51:35.489Z,98.90
2023-02-22T20:54:03.100Z,98.90
2023-02-22T20:56:32.341Z,99.00
2023-02-22T20:59:02.465Z,99.20
2023-02-22T21:01:30.530Z,99.30
2023-02-22T21:04:07.040Z,99.40
2023-02-22T21:06:37.406Z,99.50
2023-02-22T21:09:09.053Z,99.80
2023-02-22T21:11:36.889Z,99.90
2023-02-22T21:14:04.215Z,99.90
2023-02-22T21:16:35.587Z,99.90
2023-02-22T21:19:06.061Z,99.90
2023-02-22T21:21:33.477Z,99.90
2023-02-22T21:24:04.120Z,99.90
2023-02-22T21:26:34.790Z,99.90
2023-02-22T21:29:04.974Z,99.90
2023-02-22T21:31:34.158Z,99.90
2023-02-22T21:34:02.286Z,99.90
2023-02-22T21:36:30.072Z,99.90
2023-02-22T21:39:00.038Z,99.90
2023-02-22T21:41:29.978Z,99.90
2023-02-22T21:43:58.958Z,99.90
2023-02-22T21:46:29.551Z,99.90
2023-02-22T21:48:58.705Z,99.90
2023-02-22T21:51:32.588Z,99.90
2023-02-22T21:54:06.227Z,99.90
2023-02-22T21:56:37.860Z,99.90
2023-02-22T21:59:11.698Z,99.90
2023-02-22T22:01:47.658Z,99.90
2023-02-22T22:04:20.579Z,99.90
2023-02-22T22:06:50.991Z,99.90
2023-02-22T22:09:19.983Z,99.90
2023-02-22T22:11:49.811Z,99.90
2023-02-22T22:14:19.060Z,99.90
2023-02-22T22:16:48.185Z,99.90
2023-02-22T22:19:15.668Z,99.90
2023-02-22T22:21:43.043Z,99.90
2023-02-22T22:24:11.082Z,99.90
2023-02-22T22:26:39.548Z,99.90
2023-02-22T22:29:10.508Z,99.90
2023-02-22T22:31:38.042Z,99.90
2023-02-22T22:34:06.120Z,99.90
2023-02-22T22:36:34.517Z,99.90
2023-02-22T22:39:02.230Z,99.90
2023-02-22T22:41:29.533Z,99.90
2023-02-22T22:43:57.325Z,99.90
2023-02-22T22:46:24.700Z,99.90
2023-02-22T22:48:52.030Z,99.90
2023-02-22T22:51:21.060Z,99.90
2023-02-22T22:53:50.082Z,99.90
2023-02-22T22:56:21.228Z,99.90
2023-02-22T22:58:56.540Z,99.90
2023-02-22T23:01:27.620Z,99.90
2023-02-22T23:04:02.135Z,99.90
2023-02-22T23:06:32.924Z,99.90
2023-02-22T23:09:12.654Z,99.90
2023-02-22T23:11:45.738Z,99.90
2023-02-22T23:14:19.706Z,99.90
2023-02-22T23:16:48.249Z,99.90
2023-02-22T23:19:15.968Z,99.90
2023-02-22T23:21:44.051Z,99.90
2023-02-22T23:24:15.412Z,99.90
2023-02-22T23:26:50.867Z,99.90
2023-02-22T23:29:20.737Z,99.90
2023-02-22T23:31:49.490Z,99.90
2023-02-22T23:34:21.268Z,99.90
2023-02-22T23:36:49.480Z,99.90
2023-02-22T23:39:20.638Z,99.90
2023-02-22T23:41:52.541Z,99.90
2023-02-22T23:44:21.597Z,99.90
2023-02-22T23:46:49.851Z,99.90
2023-02-22T23:49:20.226Z,99.90
2023-02-22T23:51:48.222Z,99.90
2023-02-22T23:54:21.783Z,99.90
2023-02-22T23:56:58.534Z,99.90
2023-02-22T23:59:27.003Z,99.90
